createdAt,value
2023-04-05T00:02:18.840Z,4.27
2023-04-05T00:04:50.646Z,4.23
2023-04-05T00:07:19.216Z,4.14
2023-04-05T00:09:46.360Z,4.09
2023-04-05T00:12:13.319Z,4.05
2023-04-05T00:14:39.923Z,4.00
2023-04-05T00:17:07.417Z,3.96
2023-04-05T00:19:36.636Z,3.93
2023-04-05T00:22:03.754Z,3.92
2023-04-05T00:24:31.012Z,3.92
2023-04-05T00:26:57.557Z,3.88
2023-04-05T00:29:24.124Z,3.82
2023-04-05T00:31:50.895Z,3.77
2023-04-05T00:34:17.654Z,3.71
2023-04-05T00:36:44.194Z,3.68
2023-04-05T00:39:10.769Z,3.64
2023-04-05T00:41:37.379Z,3.55
2023-04-05T00:44:04.098Z,3.53
2023-04-05T00:46:34.599Z,3.52
2023-04-05T00:49:01.245Z,3.48
2023-04-05T00:51:27.795Z,3.42
2023-04-05T00:53:55.137Z,3.34
2023-04-05T00:56:22.960Z,3.27
2023-04-05T00:58:52.217Z,3.21
2023-04-05T01:01:22.426Z,3.17
2023-04-05T01:03:55.542Z,3.09
2023-04-05T01:07:00.540Z,3.02
2023-04-05T01:09:54.700Z,2.97
2023-04-05T01:12:24.130Z,2.93
2023-04-05T01:14:53.414Z,2.93
2023-04-05T01:17:22.781Z,2.94
2023-04-05T01:19:59.073Z,2.92
2023-04-05T01:22:54.577Z,2.88
2023-04-05T01:25:56.838Z,2.87
2023-04-05T01:28:44.551Z,2.83
2023-04-05T01:31:29.385Z,2.78
2023-04-05T01:34:17.749Z,2.75
2023-04-05T01:36:54.858Z,2.73
2023-04-05T01:39:23.331Z,2.69
2023-04-05T01:41:50.176Z,2.63
2023-04-05T01:44:16.806Z,2.60
2023-04-05T01:46:43.405Z,2.58
2023-04-05T01:49:10.025Z,2.60
2023-04-05T01:51:36.565Z,2.56
2023-04-05T01:54:03.082Z,2.56
2023-04-05T01:56:29.656Z,2.55
2023-04-05T01:58:56.534Z,2.52
2023-04-05T02:01:23.150Z,2.50
2023-04-05T02:03:49.928Z,2.46
2023-04-05T02:06:16.616Z,2.42
2023-04-05T02:08:43.176Z,2.39
2023-04-05T02:11:10.010Z,2.40
2023-04-05T02:13:36.612Z,2.40
2023-04-05T02:16:03.299Z,2.39
2023-04-05T02:18:33.007Z,2.37
2023-04-05T02:21:08.047Z,2.35
2023-04-05T02:23:35.040Z,2.35
2023-04-05T02:26:01.574Z,2.34
2023-04-05T02:28:28.335Z,2.30
2023-04-05T02:30:55.533Z,2.30
2023-04-05T02:33:22.888Z,2.28
2023-04-05T02:35:51.753Z,2.27
2023-04-05T02:38:18.828Z,2.24
2023-04-05T02:40:49.463Z,2.23
2023-04-05T02:43:16.581Z,2.23
2023-04-05T02:45:44.981Z,2.22
2023-04-05T02:48:13.299Z,2.20
2023-04-05T02:50:40.045Z,2.17
2023-04-05T02:53:06.805Z,2.16
2023-04-05T02:55:34.143Z,2.15
2023-04-05T02:58:01.232Z,2.14
2023-04-05T03:00:28.215Z,2.14
2023-04-05T03:02:56.636Z,2.11
2023-04-05T03:05:23.317Z,2.07
2023-04-05T03:07:52.264Z,2.05
2023-04-05T03:10:22.572Z,2.03
2023-04-05T03:12:51.434Z,2.00
2023-04-05T03:15:17.956Z,1.97
2023-04-05T03:17:44.559Z,1.96
2023-04-05T03:20:12.163Z,1.94
2023-04-05T03:22:38.763Z,1.94
2023-04-05T03:25:06.038Z,1.92
2023-04-05T03:27:32.798Z,1.89
2023-04-05T03:29:59.302Z,1.86
2023-04-05T03:32:25.930Z,1.82
2023-04-05T03:34:52.502Z,1.80
2023-04-05T03:37:19.501Z,1.78
2023-04-05T03:39:46.214Z,1.77
2023-04-05T03:42:12.750Z,1.75
2023-04-05T03:44:39.284Z,1.73
2023-04-05T03:47:05.849Z,1.73
2023-04-05T03:49:32.372Z,1.71
2023-04-05T03:51:58.914Z,1.68
2023-04-05T03:54:25.439Z,1.66
2023-04-05T03:56:52.052Z,1.67
2023-04-05T03:59:18.687Z,1.67
2023-04-05T04:01:45.373Z,1.67
2023-04-05T04:04:13.624Z,1.65
2023-04-05T04:06:40.399Z,1.64
2023-04-05T04:09:06.961Z,1.62
2023-04-05T04:11:33.506Z,1.60
2023-04-05T04:14:00.122Z,1.58
2023-04-05T04:16:28.675Z,1.57
2023-04-05T04:18:55.854Z,1.58
2023-04-05T04:21:25.028Z,1.59
2023-04-05T04:23:52.217Z,1.58
2023-04-05T04:26:29.224Z,1.58
2023-04-05T04:28:56.452Z,1.56
2023-04-05T04:31:23.118Z,1.53
2023-04-05T04:33:50.495Z,1.54
2023-04-05T04:36:18.184Z,1.52
2023-04-05T04:38:45.810Z,1.50
2023-04-05T04:41:13.166Z,1.48
2023-04-05T04:43:43.908Z,1.46
2023-04-05T04:46:15.395Z,1.44
2023-04-05T04:48:42.410Z,1.44
2023-04-05T04:51:09.263Z,1.42
2023-04-05T04:53:36.248Z,1.44
2023-04-05T04:56:06.583Z,1.48
2023-04-05T04:58:33.140Z,2.13
2023-04-05T05:01:00.059Z,2.99
2023-04-05T05:03:26.877Z,3.77
2023-04-05T05:05:53.777Z,4.46
2023-04-05T05:08:21.563Z,4.58
2023-04-05T05:10:52.940Z,4.32
2023-04-05T05:13:19.752Z,3.99
2023-04-05T05:15:46.774Z,3.70
2023-04-05T05:18:13.301Z,3.42
2023-04-05T05:20:40.225Z,3.16
2023-04-05T05:23:07.128Z,2.94
2023-04-05T05:25:33.714Z,2.76
2023-04-05T05:28:00.335Z,2.64
2023-04-05T05:30:28.461Z,2.51
2023-04-05T05:32:55.124Z,2.40
2023-04-05T05:35:21.771Z,2.31
2023-04-05T05:37:48.320Z,2.25
2023-04-05T05:40:16.411Z,2.20
2023-04-05T05:42:43.071Z,2.15
2023-04-05T05:45:10.294Z,2.15
2023-04-05T05:47:37.043Z,2.13
2023-04-05T05:50:04.229Z,2.13
2023-04-05T05:52:31.158Z,2.11
2023-04-05T05:54:57.737Z,2.08
2023-04-05T05:57:24.298Z,2.09
2023-04-05T05:59:51.047Z,2.10
2023-04-05T06:02:17.653Z,2.10
2023-04-05T06:04:45.544Z,2.13
2023-04-05T06:07:12.489Z,2.12
2023-04-05T06:09:39.037Z,2.16
2023-04-05T06:12:05.801Z,2.20
2023-04-05T06:14:32.496Z,2.23
2023-04-05T06:16:59.106Z,2.28
2023-04-05T06:19:25.937Z,2.33
2023-04-05T06:21:52.536Z,2.37
2023-04-05T06:24:19.116Z,2.43
2023-04-05T06:26:45.719Z,2.50
2023-04-05T06:29:12.275Z,2.58
2023-04-05T06:31:38.912Z,2.66
2023-04-05T06:34:05.733Z,2.79
2023-04-05T06:36:32.536Z,2.92
2023-04-05T06:38:59.636Z,3.04
2023-04-05T06:41:27.710Z,3.17
2023-04-05T07:27:17.712Z,5.65
2023-04-05T07:29:47.150Z,5.59
2023-04-05T07:32:14.973Z,5.61
2023-04-05T07:34:41.742Z,5.68
2023-04-05T07:37:08.713Z,5.73
2023-04-05T07:39:35.811Z,5.80
2023-04-05T07:42:02.413Z,5.88
2023-04-05T07:44:29.084Z,5.94
2023-04-05T07:46:55.810Z,6.02
2023-04-05T07:49:27.680Z,6.08
2023-04-05T07:51:56.437Z,6.13
2023-04-05T07:54:23.981Z,6.17
2023-04-05T07:56:51.792Z,6.22
2023-04-05T07:59:18.386Z,6.31
2023-04-05T08:01:44.993Z,6.37
2023-04-05T08:04:12.676Z,6.44
2023-04-05T08:06:39.283Z,6.49
2023-04-05T08:09:06.493Z,6.49
2023-04-05T08:11:33.295Z,6.55
2023-04-05T08:14:00.128Z,6.67
2023-04-05T08:16:27.373Z,6.76
2023-04-05T08:18:53.949Z,6.84
2023-04-05T08:21:20.824Z,6.94
2023-04-05T08:23:47.472Z,6.98
2023-04-05T08:26:14.501Z,7.02
2023-04-05T08:28:41.164Z,7.09
2023-04-05T08:31:07.676Z,7.22
2023-04-05T08:33:34.315Z,7.28
2023-04-05T08:36:05.374Z,7.32
2023-04-05T08:38:31.851Z,7.39
2023-04-05T08:41:07.798Z,7.45
2023-04-05T08:43:40.688Z,7.56
2023-04-05T08:46:14.816Z,7.67
2023-04-05T08:48:41.589Z,7.83
2023-04-05T08:51:09.364Z,7.97
2023-04-05T08:53:36.324Z,8.06
2023-04-05T08:56:04.246Z,8.09
2023-04-05T08:58:34.261Z,8.12
2023-04-05T09:01:01.515Z,8.23
2023-04-05T09:03:36.804Z,8.29
2023-04-05T09:06:07.682Z,8.40
2023-04-05T09:08:34.474Z,8.53
2023-04-05T09:11:01.062Z,8.62
2023-04-05T09:13:27.590Z,8.67
2023-04-05T09:15:54.662Z,8.79
2023-04-05T09:18:26.826Z,8.93
2023-04-05T09:21:03.897Z,9.05
2023-04-05T09:23:30.764Z,9.25
2023-04-05T09:25:57.374Z,9.32
2023-04-05T09:28:24.141Z,9.39
2023-04-05T09:30:50.834Z,9.45
2023-04-05T09:33:20.998Z,9.53
2023-04-05T09:35:51.400Z,9.68
2023-04-05T09:38:17.998Z,9.86
2023-04-05T09:40:45.734Z,9.90
2023-04-05T09:43:33.029Z,9.96
2023-04-05T09:46:00.305Z,10.05
2023-04-05T09:48:46.153Z,10.09
2023-04-05T09:51:13.501Z,10.16
2023-04-05T09:54:06.093Z,10.23
2023-04-05T09:56:38.523Z,10.43
2023-04-05T09:59:13.052Z,10.58
2023-04-05T10:01:43.963Z,10.67
2023-04-05T10:04:11.099Z,10.71
2023-04-05T10:06:42.759Z,10.75
2023-04-05T10:09:11.146Z,10.79
2023-04-05T10:11:38.784Z,10.84
2023-04-05T10:14:07.719Z,10.83
2023-04-05T10:16:45.041Z,10.71
2023-04-05T10:19:21.123Z,10.64
2023-04-05T10:21:48.139Z,10.72
2023-04-05T10:24:36.816Z,10.76
2023-04-05T10:27:06.674Z,10.84
2023-04-05T10:29:47.361Z,10.92
2023-04-05T10:32:31.632Z,10.99
2023-04-05T10:35:06.072Z,11.06
2023-04-05T10:37:48.390Z,11.12
2023-04-05T10:40:19.173Z,11.26
2023-04-05T10:42:47.717Z,11.47
2023-04-05T10:45:19.498Z,11.59
2023-04-05T10:48:19.035Z,11.73
2023-04-05T10:50:48.435Z,11.92
2023-04-05T10:53:16.923Z,12.00
2023-04-05T10:55:47.120Z,12.01
2023-04-05T10:58:16.056Z,12.00
2023-04-05T11:00:43.831Z,12.13
2023-04-05T11:03:10.646Z,12.22
2023-04-05T11:05:37.845Z,12.36
2023-04-05T11:08:08.818Z,12.30
2023-04-05T11:10:37.605Z,12.29
2023-04-05T11:13:06.230Z,12.31
2023-04-05T11:15:34.535Z,12.31
2023-04-05T11:18:08.991Z,12.42
2023-04-05T11:20:53.093Z,12.52
2023-04-05T11:23:25.255Z,12.65
2023-04-05T11:25:54.667Z,12.77
2023-04-05T11:28:39.446Z,12.95
2023-04-05T11:31:20.506Z,12.97
2023-04-05T11:34:12.948Z,12.94
2023-04-05T11:36:44.259Z,12.98
2023-04-05T11:39:21.231Z,13.16
2023-04-05T11:41:54.750Z,13.30
2023-04-05T11:44:23.621Z,13.47
2023-04-05T11:46:51.527Z,13.52
2023-04-05T11:49:18.120Z,13.63
2023-04-05T11:51:48.621Z,13.63
2023-04-05T11:54:27.898Z,13.64
2023-04-05T11:56:54.440Z,13.54
2023-04-05T11:59:28.729Z,13.38
2023-04-05T12:02:06.435Z,13.24
2023-04-05T12:04:33.419Z,13.39
2023-04-05T12:07:12.234Z,13.62
2023-04-05T12:10:01.052Z,13.82
2023-04-05T12:12:28.064Z,13.68
2023-04-05T12:15:02.318Z,13.52
2023-04-05T12:17:58.194Z,13.61
2023-04-05T12:20:26.311Z,13.84
2023-04-05T12:22:54.368Z,14.10
2023-04-05T12:25:21.693Z,14.30
2023-04-05T12:27:48.464Z,14.38
2023-04-05T12:30:16.578Z,14.18
2023-04-05T12:32:52.585Z,14.11
2023-04-05T12:35:25.176Z,14.06
2023-04-05T12:37:52.243Z,14.01
2023-04-05T12:40:23.468Z,13.82
2023-04-05T12:42:50.712Z,13.68
2023-04-05T12:45:18.540Z,13.72
2023-04-05T12:48:15.636Z,13.88
2023-04-05T12:50:44.688Z,14.02
2023-04-05T12:53:23.817Z,14.02
2023-04-05T12:55:52.803Z,13.98
2023-04-05T12:58:20.940Z,13.87
2023-04-05T13:00:47.488Z,13.94
2023-04-05T13:03:21.697Z,14.01
2023-04-05T13:05:49.337Z,14.24
2023-04-05T13:08:18.404Z,14.56
2023-04-05T13:10:49.687Z,14.76
2023-04-05T13:13:17.734Z,14.84
2023-04-05T13:15:45.760Z,14.78
2023-04-05T13:18:14.989Z,14.56
2023-04-05T13:20:45.612Z,14.55
2023-04-05T13:23:12.916Z,14.71
2023-04-05T13:25:41.496Z,14.77
2023-04-05T13:28:09.478Z,14.67
2023-04-05T13:30:36.088Z,14.82
2023-04-05T13:33:04.609Z,15.17
2023-04-05T13:35:32.017Z,15.25
2023-04-05T13:37:59.618Z,15.37
2023-04-05T13:40:27.429Z,15.53
2023-04-05T13:42:53.949Z,15.64
2023-04-05T13:45:20.531Z,15.82
2023-04-05T13:47:47.103Z,16.18
2023-04-05T13:50:13.814Z,16.54
2023-04-05T13:52:40.523Z,16.95
2023-04-05T13:55:07.370Z,17.10
2023-04-05T13:57:33.983Z,17.41
2023-04-05T14:00:00.793Z,17.91
2023-04-05T14:02:28.014Z,18.41
2023-04-05T14:04:54.979Z,18.95
2023-04-05T14:07:22.483Z,19.09
2023-04-05T14:09:49.145Z,19.22
2023-04-05T14:12:15.979Z,19.47
2023-04-05T14:14:42.560Z,19.81
2023-04-05T14:17:11.501Z,20.30
2023-04-05T14:19:38.845Z,20.51
2023-04-05T14:22:05.592Z,20.84
2023-04-05T14:24:32.210Z,21.19
2023-04-05T14:26:58.984Z,21.51
2023-04-05T14:29:25.992Z,21.37
2023-04-05T14:31:54.539Z,20.77
2023-04-05T14:34:21.468Z,19.78
2023-04-05T14:36:48.172Z,19.65
2023-04-05T14:39:14.738Z,20.07
2023-04-05T14:41:41.366Z,20.17
2023-04-05T14:44:08.000Z,20.52
2023-04-05T14:46:34.579Z,21.00
2023-04-05T14:49:01.490Z,21.26
2023-04-05T14:51:28.237Z,21.33
2023-04-05T14:53:54.839Z,21.52
2023-04-05T14:56:21.555Z,21.83
2023-04-05T14:58:48.156Z,21.87
2023-04-05T15:01:14.826Z,22.03
2023-04-05T15:03:41.680Z,22.11
2023-04-05T15:06:08.826Z,22.11
2023-04-05T15:08:35.348Z,22.46
2023-04-05T15:11:02.011Z,22.77
2023-04-05T15:13:28.777Z,23.14
2023-04-05T15:15:55.409Z,23.28
2023-04-05T15:18:22.208Z,23.39
2023-04-05T15:20:49.418Z,23.53
2023-04-05T15:23:16.331Z,23.48
2023-04-05T15:25:42.974Z,23.53
2023-04-05T15:28:09.538Z,23.72
2023-04-05T15:30:36.432Z,23.92
2023-04-05T15:33:03.293Z,23.79
2023-04-05T15:35:29.969Z,23.50
2023-04-05T15:37:56.821Z,23.05
2023-04-05T15:40:23.567Z,22.81
2023-04-05T15:42:50.153Z,22.81
2023-04-05T15:45:16.846Z,22.81
2023-04-05T15:47:43.531Z,22.64
2023-04-05T15:50:10.262Z,22.47
2023-04-05T15:52:36.984Z,22.41
2023-04-05T15:55:04.354Z,22.11
2023-04-05T15:57:31.023Z,21.75
2023-04-05T15:59:57.788Z,21.44
2023-04-05T16:02:25.359Z,21.09
2023-04-05T16:04:52.219Z,21.06
2023-04-05T16:07:19.143Z,21.24
2023-04-05T16:09:46.273Z,21.53
2023-04-05T16:12:13.059Z,21.82
2023-04-05T16:14:39.858Z,21.96
2023-04-05T16:17:06.465Z,22.10
2023-04-05T16:19:33.487Z,22.30
2023-04-05T16:22:00.940Z,22.50
2023-04-05T16:24:28.221Z,22.46
2023-04-05T16:26:54.809Z,22.30
2023-04-05T16:29:21.384Z,22.18
2023-04-05T16:31:48.143Z,21.94
2023-04-05T16:34:14.867Z,21.73
2023-04-05T16:36:41.898Z,21.42
2023-04-05T16:39:08.948Z,20.95
2023-04-05T16:41:36.314Z,20.16
2023-04-05T16:44:03.368Z,19.23
2023-04-05T16:46:32.257Z,18.31
2023-04-05T16:49:00.357Z,17.55
2023-04-05T16:51:28.066Z,16.88
2023-04-05T16:53:55.870Z,16.33
2023-04-05T16:56:24.380Z,15.99
2023-04-05T16:58:51.511Z,15.74
2023-04-05T17:01:18.213Z,15.57
2023-04-05T17:03:47.075Z,15.43
2023-04-05T17:06:14.929Z,15.27
2023-04-05T17:08:41.964Z,15.14
2023-04-05T17:11:08.610Z,14.96
2023-04-05T17:13:35.433Z,14.78
2023-04-05T17:16:02.063Z,14.58
2023-04-05T17:18:28.828Z,14.36
2023-04-05T17:20:55.418Z,14.24
2023-04-05T17:23:22.055Z,14.07
2023-04-05T17:25:48.644Z,13.94
2023-04-05T17:28:15.458Z,13.87
2023-04-05T17:30:42.007Z,13.78
2023-04-05T17:33:08.608Z,13.64
2023-04-05T17:35:35.558Z,13.54
2023-04-05T17:38:03.493Z,13.36
2023-04-05T17:40:31.163Z,13.18
2023-04-05T17:42:57.798Z,13.05
2023-04-05T17:45:24.450Z,12.89
2023-04-05T17:47:51.412Z,12.77
2023-04-05T17:50:18.071Z,12.63
2023-04-05T17:52:44.978Z,12.49
2023-04-05T17:55:11.557Z,12.36
2023-04-05T17:57:38.178Z,12.21
2023-04-05T18:00:05.388Z,12.09
2023-04-05T18:02:32.570Z,11.95
2023-04-05T18:04:59.263Z,11.81
2023-04-05T18:07:27.236Z,11.68
2023-04-05T18:09:53.914Z,11.55
2023-04-05T18:12:20.794Z,11.46
2023-04-05T18:14:47.445Z,11.33
2023-04-05T18:17:14.126Z,11.22
2023-04-05T18:19:40.692Z,11.12
2023-04-05T18:22:07.342Z,11.01
2023-04-05T18:24:34.054Z,10.90
2023-04-05T18:27:00.642Z,10.78
2023-04-05T18:29:30.727Z,10.67
2023-04-05T18:31:57.572Z,10.58
2023-04-05T18:34:24.398Z,10.50
2023-04-05T18:36:51.339Z,10.39
2023-04-05T18:39:19.659Z,10.31
2023-04-05T18:41:46.564Z,10.26
2023-04-05T18:44:13.565Z,10.20
2023-04-05T18:46:40.288Z,10.15
2023-04-05T18:49:07.139Z,10.08
2023-04-05T18:51:33.925Z,9.99
2023-04-05T18:54:00.667Z,9.92
2023-04-05T18:56:27.889Z,9.87
2023-04-05T18:58:54.552Z,9.82
2023-04-05T19:01:22.340Z,9.74
2023-04-05T19:03:50.357Z,9.66
2023-04-05T19:06:17.645Z,9.61
2023-04-05T19:08:44.286Z,9.55
2023-04-05T19:11:13.785Z,9.48
2023-04-05T19:13:43.164Z,9.39
2023-04-05T19:16:09.841Z,9.32
2023-04-05T19:18:36.455Z,9.24
2023-04-05T19:21:03.096Z,9.18
2023-04-05T19:23:30.372Z,9.13
2023-04-05T19:25:58.213Z,9.10
2023-04-05T19:28:26.311Z,9.04
2023-04-05T19:30:53.998Z,9.02
2023-04-05T19:33:21.824Z,8.96
2023-04-05T19:35:48.718Z,8.89
2023-04-05T19:38:15.484Z,8.85
2023-04-05T19:40:42.594Z,8.80
2023-04-05T19:43:10.077Z,8.73
2023-04-05T19:45:37.169Z,8.63
2023-04-05T19:48:27.740Z,8.55
2023-04-05T19:50:56.404Z,8.41
2023-04-05T19:53:41.385Z,8.31
2023-04-05T19:56:32.432Z,8.25
2023-04-05T19:59:11.007Z,8.36
2023-04-05T20:01:41.638Z,8.41
2023-04-05T20:04:20.270Z,8.42
2023-04-05T20:06:57.046Z,8.43
2023-04-05T20:09:25.858Z,8.48
2023-04-05T20:11:57.986Z,8.49
2023-04-05T20:14:41.025Z,8.53
2023-04-05T20:17:08.330Z,8.57
2023-04-05T20:19:34.997Z,8.49
2023-04-05T20:22:05.869Z,8.38
2023-04-05T20:24:32.576Z,8.26
2023-04-05T20:26:59.287Z,8.17
2023-04-05T20:29:28.528Z,8.07
2023-04-05T20:31:55.473Z,8.02
2023-04-05T20:34:28.549Z,7.93
2023-04-05T20:37:01.639Z,7.84
2023-04-05T20:39:29.213Z,7.76
2023-04-05T20:41:56.663Z,7.71
2023-04-05T20:44:24.383Z,7.66
2023-04-05T20:46:54.678Z,7.60
2023-04-05T20:49:22.323Z,7.52
2023-04-05T20:51:50.706Z,7.45
2023-04-05T20:54:17.848Z,7.39
2023-04-05T20:56:44.569Z,7.34
2023-04-05T20:59:11.562Z,7.25
2023-04-05T21:01:38.715Z,7.19
2023-04-05T21:04:06.485Z,7.15
2023-04-05T21:06:34.331Z,7.12
2023-04-05T21:09:01.268Z,7.11
2023-04-05T21:11:27.865Z,7.09
2023-04-05T21:13:54.528Z,7.06
2023-04-05T21:16:21.305Z,7.05
2023-04-05T21:18:47.953Z,7.01
2023-04-05T21:21:14.544Z,6.97
2023-04-05T21:23:41.200Z,6.93
2023-04-05T21:26:07.785Z,6.93
2023-04-05T21:28:34.426Z,6.91
2023-04-05T21:31:01.044Z,6.89
2023-04-05T21:33:27.614Z,6.86
2023-04-05T21:36:34.944Z,6.78
2023-04-05T21:39:01.491Z,6.74
2023-04-05T21:41:28.051Z,6.69
2023-04-05T21:43:54.645Z,6.67
2023-04-05T21:46:21.466Z,6.63
2023-04-05T21:48:48.031Z,6.62
2023-04-05T21:51:14.584Z,6.58
2023-04-05T21:53:41.140Z,6.55
2023-04-05T21:56:07.786Z,6.52
2023-04-05T21:58:34.361Z,6.51
2023-04-05T22:01:01.463Z,6.49
2023-04-05T22:03:28.163Z,6.47
2023-04-05T22:05:54.785Z,6.43
2023-04-05T22:08:21.318Z,6.41
2023-04-05T22:10:48.065Z,6.37
2023-04-05T22:13:14.668Z,6.34
2023-04-05T22:15:41.311Z,6.32
2023-04-05T22:18:08.507Z,6.27
2023-04-05T22:20:35.299Z,6.24
2023-04-05T22:23:01.835Z,6.20
2023-04-05T22:25:28.484Z,6.17
2023-04-05T22:28:00.213Z,6.16
2023-04-05T22:30:28.884Z,6.13
2023-04-05T22:32:55.700Z,6.10
2023-04-05T22:35:22.263Z,6.06
2023-04-05T22:37:48.831Z,5.98
2023-04-05T22:40:15.432Z,5.95
2023-04-05T22:42:42.242Z,5.94
2023-04-05T22:45:09.844Z,5.91
2023-04-05T22:47:36.426Z,5.85
2023-04-05T22:50:03.086Z,5.81
2023-04-05T22:52:29.624Z,5.75
2023-04-05T22:54:56.308Z,5.69
2023-04-05T22:57:22.855Z,5.66
2023-04-05T22:59:49.395Z,5.63
2023-04-05T23:02:16.155Z,5.56
2023-04-05T23:04:42.786Z,5.50
2023-04-05T23:07:09.361Z,5.46
2023-04-05T23:09:36.200Z,5.43
2023-04-05T23:12:02.820Z,5.42
2023-04-05T23:14:29.414Z,5.41
2023-04-05T23:16:55.940Z,5.36
2023-04-05T23:19:22.596Z,5.32
2023-04-05T23:21:49.206Z,5.27
2023-04-05T23:24:15.800Z,5.23
2023-04-05T23:26:42.639Z,5.20
2023-04-05T23:29:09.366Z,5.16
2023-04-05T23:31:36.267Z,5.15
2023-04-05T23:34:02.891Z,5.12
2023-04-05T23:36:29.454Z,5.11
2023-04-05T23:38:58.288Z,5.08
2023-04-05T23:41:24.997Z,5.07
2023-04-05T23:43:51.926Z,5.04
2023-04-05T23:46:18.791Z,5.02
2023-04-05T23:48:45.417Z,5.01
2023-04-05T23:51:12.007Z,4.98
2023-04-05T23:53:38.586Z,5.00
2023-04-05T23:56:06.235Z,4.97
2023-04-05T23:58:32.939Z,4.94
